Time;durP1;ratioP1;P1;durP2;ratioP2;P2;SDS_P1;SDS_P2;PMS_P1;PMS_P2;Temp;Humidity;BMP_temperature;BMP_pressure;BME280_temperature;BME280_humidity;BME280_pressure;Samples;Min_cycle;Max_cycle;Signal;HPM_P1;HPM_P2
2023/09/03 00:01:33;;;;;;;10.55;6.72;;;13.70;99.90;;;;;;5010889;28;20046;-85
2023/09/03 00:04:00;;;;;;;13.23;6.60;;;13.70;99.90;;;;;;4981910;28;20042;-85
2023/09/03 00:06:26;;;;;;;11.05;6.90;;;13.60;99.90;;;;;;4965974;28;20042;-86
2023/09/03 00:08:53;;;;;;;11.38;7.25;;;13.60;99.90;;;;;;4981658;28;20034;-85
2023/09/03 00:11:20;;;;;;;10.65;7.88;;;13.60;99.90;;;;;;4997672;28;20046;-85
2023/09/03 00:13:47;;;;;;;11.23;8.10;;;13.60;99.90;;;;;;4965649;28;20049;-85
2023/09/03 00:16:13;;;;;;;12.20;7.90;;;13.80;99.90;;;;;;4981241;28;20042;-85
2023/09/03 00:18:40;;;;;;;11.30;7.95;;;13.60;99.90;;;;;;4981038;28;20046;-86
2023/09/03 00:21:07;;;;;;;12.35;7.63;;;13.60;99.90;;;;;;4997005;28;20046;-85
2023/09/03 00:23:34;;;;;;;11.57;8.05;;;13.50;99.90;;;;;;4997399;28;20455;-85
2023/09/03 00:26:01;;;;;;;10.43;7.78;;;13.50;99.90;;;;;;4997146;28;20050;-85
2023/09/03 00:28:28;;;;;;;11.77;8.05;;;13.50;99.90;;;;;;4981164;28;20650;-86
2023/09/03 00:31:08;;;;;;;11.70;7.18;;;13.50;99.90;;;;;;4981355;28;20096;-85
2023/09/03 00:33:36;;;;;;;10.10;8.05;;;13.50;99.90;;;;;;4981045;28;20042;-85
2023/09/03 00:36:10;;;;;;;11.10;7.97;;;13.40;99.90;;;;;;4996731;28;20046;-86
2023/09/03 00:38:38;;;;;;;10.38;8.20;;;13.40;99.90;;;;;;5012579;28;20046;-85
2023/09/03 00:41:05;;;;;;;11.70;8.48;;;13.40;99.90;;;;;;4996475;28;20046;-86
2023/09/03 00:43:33;;;;;;;12.43;8.50;;;13.40;99.90;;;;;;4965358;28;20097;-85
2023/09/03 00:46:03;;;;;;;10.73;8.10;;;13.30;99.90;;;;;;4997015;28;20041;-85
2023/09/03 00:48:30;;;;;;;11.02;8.07;;;13.30;99.90;;;;;;4996565;28;20502;-85
2023/09/03 00:51:01;;;;;;;12.93;8.32;;;13.30;99.90;;;;;;4980654;28;20510;-85
2023/09/03 00:53:30;;;;;;;14.00;8.70;;;13.20;99.90;;;;;;4996547;28;20046;-85
2023/09/03 00:55:58;;;;;;;10.93;8.25;;;13.30;99.90;;;;;;4958887;28;20038;-85
2023/09/03 00:58:25;;;;;;;14.63;8.40;;;13.30;99.90;;;;;;4967120;28;20073;-85
2023/09/03 01:00:52;;;;;;;12.05;8.23;;;13.20;99.90;;;;;;4996316;28;20048;-85
2023/09/03 01:03:20;;;;;;;13.35;8.05;;;13.20;99.90;;;;;;4996153;28;20193;-85
2023/09/03 01:05:46;;;;;;;10.45;7.55;;;13.20;99.90;;;;;;4953430;28;20522;-85
2023/09/03 01:08:13;;;;;;;12.32;8.05;;;13.20;99.90;;;;;;4991866;28;20038;-86
2023/09/03 01:10:51;;;;;;;13.25;8.52;;;13.20;99.90;;;;;;4964025;28;20046;-86
2023/09/03 01:13:20;;;;;;;12.48;7.55;;;13.10;99.90;;;;;;4996197;28;20038;-85
2023/09/03 01:15:51;;;;;;;10.90;8.40;;;13.10;99.90;;;;;;4989702;28;20034;-86
2023/09/03 01:18:23;;;;;;;12.20;8.23;;;13.10;99.90;;;;;;4977199;28;20039;-85
2023/09/03 01:20:58;;;;;;;11.98;8.52;;;13.10;99.90;;;;;;4976303;28;20046;-86
2023/09/03 01:23:44;;;;;;;12.13;8.80;;;13.00;99.90;;;;;;4977164;28;20546;-86
2023/09/03 01:26:18;;;;;;;14.27;8.57;;;13.00;99.90;;;;;;4976971;28;20039;-86
2023/09/03 01:28:47;;;;;;;11.60;8.73;;;13.10;99.90;;;;;;4992422;28;20463;-86
2023/09/03 01:31:19;;;;;;;12.20;8.63;;;13.00;99.90;;;;;;4976860;28;20051;-85
2023/09/03 01:33:48;;;;;;;10.75;8.48;;;13.10;99.90;;;;;;4976379;28;20042;-85
2023/09/03 01:36:16;;;;;;;15.98;9.50;;;13.00;99.90;;;;;;4976621;28;20042;-86
2023/09/03 01:38:43;;;;;;;12.70;9.25;;;13.10;99.90;;;;;;4976547;28;20038;-86
2023/09/03 01:41:10;;;;;;;12.15;9.30;;;13.10;99.90;;;;;;4976473;28;20108;-86
2023/09/03 01:43:37;;;;;;;14.13;10.35;;;13.10;99.90;;;;;;4976383;28;20049;-86
2023/09/03 01:46:09;;;;;;;14.65;9.40;;;13.20;99.90;;;;;;4944339;28;20125;-85
2023/09/03 01:48:57;;;;;;;13.57;9.05;;;13.20;99.90;;;;;;4992626;28;20042;-86
2023/09/03 01:51:44;;;;;;;14.23;9.23;;;13.20;99.90;;;;;;4995603;28;20125;-85
2023/09/03 01:54:27;;;;;;;13.88;8.95;;;13.20;99.90;;;;;;4995652;28;20050;-85
2023/09/03 01:57:30;;;;;;;12.68;9.15;;;13.20;99.90;;;;;;4995295;28;20046;-86
2023/09/03 02:00:00;;;;;;;14.32;9.48;;;13.20;99.90;;;;;;4955264;28;20523;-86
2023/09/03 02:02:28;;;;;;;12.52;9.23;;;13.20;99.90;;;;;;4995156;28;20137;-85
2023/09/03 02:04:55;;;;;;;12.93;8.70;;;13.20;99.90;;;;;;4978782;28;20395;-85
2023/09/03 02:07:22;;;;;;;12.80;9.20;;;13.10;99.90;;;;;;4986439;28;20070;-86
2023/09/03 02:09:49;;;;;;;13.50;8.60;;;13.10;99.90;;;;;;4959323;28;20077;-86
2023/09/03 02:12:23;;;;;;;12.18;8.68;;;13.10;99.90;;;;;;4975888;28;20050;-85
2023/09/03 02:14:51;;;;;;;19.85;8.70;;;13.00;99.90;;;;;;4945785;28;20045;-86
2023/09/03 02:17:20;;;;;;;12.98;8.43;;;13.00;99.90;;;;;;4949030;28;20065;-85
2023/09/03 02:19:56;;;;;;;12.25;8.40;;;13.00;99.90;;;;;;4964437;28;20092;-87
2023/09/03 02:22:23;;;;;;;11.88;8.50;;;12.90;99.90;;;;;;4979509;28;20392;-86
2023/09/03 02:24:50;;;;;;;11.63;7.90;;;12.90;99.90;;;;;;4979158;28;20046;-86
2023/09/03 02:27:17;;;;;;;13.82;8.20;;;12.90;99.90;;;;;;4995219;28;20129;-86
2023/09/03 02:29:44;;;;;;;11.00;7.95;;;12.90;99.90;;;;;;4978811;28;20571;-86
2023/09/03 02:32:11;;;;;;;11.13;7.55;;;12.90;99.90;;;;;;4994829;28;20046;-86
2023/09/03 02:34:38;;;;;;;13.55;9.05;;;12.80;99.90;;;;;;4979316;28;20041;-86
2023/09/03 02:37:05;;;;;;;14.77;7.95;;;12.80;99.90;;;;;;4994397;28;20511;-86
2023/09/03 02:39:32;;;;;;;11.98;8.38;;;12.80;99.90;;;;;;4980272;28;20514;-86
2023/09/03 02:41:59;;;;;;;12.32;8.80;;;12.80;99.90;;;;;;4974866;28;20047;-87
2023/09/03 02:44:26;;;;;;;10.70;8.00;;;12.50;99.90;;;;;;4975515;28;20116;-86
2023/09/03 02:46:52;;;;;;;11.02;7.60;;;12.70;99.90;;;;;;4943626;28;20039;-87
2023/09/03 02:49:20;;;;;;;10.10;7.63;;;12.70;99.90;;;;;;4992881;28;20046;-87
2023/09/03 02:51:47;;;;;;;10.85;8.02;;;12.60;99.90;;;;;;4975351;28;20049;-86
2023/09/03 02:54:14;;;;;;;11.45;7.60;;;12.60;99.90;;;;;;4959268;28;20039;-86
2023/09/03 02:56:41;;;;;;;12.25;7.60;;;12.60;99.90;;;;;;4959357;28;20042;-86
2023/09/03 02:59:08;;;;;;;12.73;7.50;;;12.50;99.90;;;;;;4944698;28;20053;-86
2023/09/03 03:01:35;;;;;;;11.85;7.18;;;12.50;99.90;;;;;;4994613;28;20049;-86
2023/09/03 03:04:02;;;;;;;11.75;8.45;;;12.50;99.90;;;;;;4993946;28;20042;-86
2023/09/03 03:06:29;;;;;;;13.30;8.57;;;12.50;99.90;;;;;;4994392;28;20042;-86
2023/09/03 03:08:55;;;;;;;11.73;8.18;;;12.50;99.90;;;;;;4962204;28;20038;-87
2023/09/03 03:11:23;;;;;;;13.00;8.15;;;12.40;99.90;;;;;;5009243;28;20042;-86
2023/09/03 03:13:52;;;;;;;12.65;8.30;;;12.40;99.90;;;;;;4962666;28;20077;-86
2023/09/03 03:16:18;;;;;;;11.18;8.35;;;12.40;99.90;;;;;;4962194;28;20051;-86
2023/09/03 03:18:48;;;;;;;11.13;7.47;;;12.40;99.90;;;;;;4959711;28;20093;-86
2023/09/03 03:21:22;;;;;;;14.00;7.78;;;12.40;99.90;;;;;;4974131;28;20043;-86
2023/09/03 03:23:51;;;;;;;13.00;7.90;;;12.30;99.90;;;;;;4960046;28;20474;-86
2023/09/03 03:26:19;;;;;;;10.70;8.20;;;12.20;99.90;;;;;;4974316;28;20043;-86
2023/09/03 03:28:46;;;;;;;13.85;8.32;;;12.30;99.90;;;;;;4976589;28;20042;-86
2023/09/03 03:31:18;;;;;;;10.93;8.02;;;12.30;99.90;;;;;;4993811;28;20043;-85
2023/09/03 03:33:47;;;;;;;10.90;7.53;;;12.20;99.90;;;;;;4994239;28;20046;-87
2023/09/03 03:36:20;;;;;;;12.85;7.57;;;12.20;99.90;;;;;;4977461;28;20038;-86
2023/09/03 03:38:48;;;;;;;13.23;7.95;;;12.20;99.90;;;;;;4993561;28;20049;-86
2023/09/03 03:41:19;;;;;;;12.35;7.93;;;12.20;99.90;;;;;;4977715;28;20046;-86
2023/09/03 03:43:48;;;;;;;12.45;7.85;;;12.20;99.90;;;;;;4994453;28;20042;-87
2023/09/03 03:46:16;;;;;;;10.40;7.07;;;12.20;99.90;;;;;;4977723;28;20045;-86
2023/09/03 03:48:44;;;;;;;11.77;7.63;;;12.50;99.90;;;;;;4985946;28;20035;-86
2023/09/03 03:51:11;;;;;;;11.32;8.00;;;12.10;99.90;;;;;;4958498;28;20051;-86
2023/09/03 03:53:38;;;;;;;10.82;7.35;;;12.20;99.90;;;;;;4959043;28;20514;-86
2023/09/03 03:56:07;;;;;;;10.95;8.38;;;12.10;99.90;;;;;;4958203;28;20053;-86
2023/09/03 03:58:36;;;;;;;12.05;8.23;;;12.10;99.90;;;;;;4974826;28;20183;-86
2023/09/03 04:01:20;;;;;;;11.57;7.60;;;12.20;99.90;;;;;;4974099;28;20066;-89
2023/09/03 04:03:49;;;;;;;11.48;8.07;;;12.10;99.90;;;;;;4974152;28;20041;-86
2023/09/03 04:06:15;;;;;;;12.05;8.23;;;12.10;99.90;;;;;;4973666;28;20443;-86
2023/09/03 04:08:45;;;;;;;12.77;8.18;;;12.10;99.90;;;;;;4990671;28;20035;-87
2023/09/03 04:11:15;;;;;;;10.85;8.27;;;12.10;99.90;;;;;;4974625;28;20042;-86
2023/09/03 04:13:42;;;;;;;10.63;7.32;;;12.10;99.90;;;;;;4990799;28;20035;-86
2023/09/03 04:16:14;;;;;;;10.35;7.60;;;12.10;99.90;;;;;;4990461;28;20051;-86
2023/09/03 04:18:41;;;;;;;10.50;7.05;;;12.10;99.90;;;;;;4958685;28;20043;-86
2023/09/03 04:21:08;;;;;;;11.20;7.97;;;12.10;99.90;;;;;;4973794;28;20112;-86
2023/09/03 04:23:35;;;;;;;12.45;8.23;;;12.10;99.90;;;;;;4962029;28;20474;-86
2023/09/03 04:26:01;;;;;;;10.60;7.55;;;12.10;99.90;;;;;;4993520;28;20501;-86
2023/09/03 04:28:28;;;;;;;11.25;8.05;;;12.10;99.90;;;;;;4993212;28;20556;-86
2023/09/03 04:30:57;;;;;;;11.82;7.97;;;12.10;99.90;;;;;;4977751;28;20090;-86
2023/09/03 04:33:23;;;;;;;11.95;7.57;;;12.10;99.90;;;;;;4994279;28;20856;-86
2023/09/03 04:35:55;;;;;;;11.85;7.85;;;12.10;99.90;;;;;;4965170;28;20035;-86
2023/09/03 04:38:22;;;;;;;13.35;8.05;;;12.10;99.90;;;;;;4996836;28;20746;-86
2023/09/03 04:40:49;;;;;;;12.25;7.88;;;12.10;99.90;;;;;;4975595;28;20035;-86
2023/09/03 04:43:16;;;;;;;10.73;7.43;;;12.10;99.90;;;;;;5009684;28;20487;-86
2023/09/03 04:45:50;;;;;;;12.25;7.70;;;12.10;99.90;;;;;;4993708;28;20046;-86
2023/09/03 04:48:18;;;;;;;9.48;6.97;;;12.10;99.90;;;;;;4977972;28;20038;-86
2023/09/03 04:50:48;;;;;;;11.13;7.95;;;12.00;99.90;;;;;;4980838;28;20034;-86
2023/09/03 04:53:15;;;;;;;11.05;7.63;;;12.00;99.90;;;;;;4996279;28;20039;-87
2023/09/03 04:55:42;;;;;;;9.98;7.38;;;12.00;99.90;;;;;;4965461;28;20110;-87
2023/09/03 04:58:09;;;;;;;10.07;7.47;;;12.00;99.90;;;;;;4996344;28;20034;-86
2023/09/03 05:00:36;;;;;;;10.00;7.30;;;12.00;99.90;;;;;;4980869;28;20046;-86
2023/09/03 05:03:04;;;;;;;14.30;7.40;;;12.00;99.90;;;;;;4996569;28;20046;-86
2023/09/03 05:05:37;;;;;;;13.60;7.10;;;12.00;99.90;;;;;;4996001;28;20450;-86
2023/09/03 05:08:04;;;;;;;9.77;7.00;;;12.00;99.90;;;;;;4996817;28;20053;-86
2023/09/03 05:10:31;;;;;;;11.30;6.90;;;12.00;99.90;;;;;;4980331;28;20043;-86
2023/09/03 05:12:58;;;;;;;10.18;7.00;;;12.00;99.90;;;;;;4994286;28;20125;-86
2023/09/03 05:15:25;;;;;;;12.60;7.45;;;12.00;99.90;;;;;;4964394;28;20042;-86
2023/09/03 05:17:51;;;;;;;9.32;6.63;;;12.00;99.90;;;;;;4980712;28;20052;-86
2023/09/03 05:20:18;;;;;;;10.38;7.03;;;12.10;99.90;;;;;;4980590;28;20108;-87
2023/09/03 05:22:45;;;;;;;10.77;7.13;;;12.10;99.90;;;;;;4980071;28;20116;-86
2023/09/03 05:25:12;;;;;;;9.60;7.15;;;12.10;99.90;;;;;;4964756;28;20045;-87
2023/09/03 05:27:39;;;;;;;10.93;6.70;;;12.10;99.90;;;;;;4979916;28;20100;-86
2023/09/03 05:30:06;;;;;;;9.77;6.65;;;12.10;99.90;;;;;;4964092;28;20495;-86
2023/09/03 05:32:33;;;;;;;10.05;7.47;;;12.20;99.90;;;;;;4979825;28;20053;-87
2023/09/03 05:34:59;;;;;;;9.05;6.40;;;12.10;99.90;;;;;;4979266;28;20415;-86
2023/09/03 05:37:26;;;;;;;10.93;7.13;;;12.30;99.90;;;;;;4964286;28;20053;-87
2023/09/03 05:39:53;;;;;;;10.30;7.30;;;12.30;99.90;;;;;;4996319;28;20044;-86
2023/09/03 05:42:21;;;;;;;12.60;6.85;;;12.40;99.90;;;;;;4995496;28;20101;-87
2023/09/03 05:44:48;;;;;;;10.10;6.68;;;12.50;99.90;;;;;;4969895;28;20086;-86
2023/09/03 05:47:18;;;;;;;10.18;7.03;;;12.50;99.90;;;;;;4976353;28;20458;-86
2023/09/03 05:49:46;;;;;;;9.63;6.97;;;12.60;99.90;;;;;;4945674;28;20049;-87
2023/09/03 05:52:13;;;;;;;10.75;7.43;;;12.40;99.90;;;;;;4961379;28;20041;-87
2023/09/03 05:54:39;;;;;;;9.82;7.50;;;12.70;99.90;;;;;;4960568;28;20125;-86
2023/09/03 05:57:06;;;;;;;9.35;6.97;;;12.70;99.90;;;;;;4992319;28;20047;-86
2023/09/03 05:59:33;;;;;;;11.20;7.53;;;12.90;99.90;;;;;;4992139;28;20042;-87
2023/09/03 06:02:00;;;;;;;10.77;7.15;;;12.90;99.90;;;;;;4960406;28;20050;-86
2023/09/03 06:04:26;;;;;;;10.30;6.63;;;13.00;99.90;;;;;;4960205;28;20043;-87
2023/09/03 06:06:53;;;;;;;15.93;6.90;;;13.00;99.90;;;;;;4989710;28;20117;-87
2023/09/03 06:09:20;;;;;;;9.63;6.65;;;13.10;99.90;;;;;;4995731;28;20084;-86
2023/09/03 06:11:48;;;;;;;10.50;6.70;;;13.20;99.90;;;;;;4979217;28;20133;-87
2023/09/03 06:14:15;;;;;;;10.95;7.10;;;13.30;99.90;;;;;;4994992;28;20050;-86
2023/09/03 06:16:42;;;;;;;12.30;7.43;;;13.30;99.90;;;;;;4994962;28;20088;-86
2023/09/03 06:19:08;;;;;;;14.45;6.53;;;13.40;99.90;;;;;;4995131;28;20054;-86
2023/09/03 06:21:35;;;;;;;11.40;6.95;;;13.50;99.90;;;;;;4963603;28;20043;-87
2023/09/03 06:24:02;;;;;;;11.30;7.10;;;13.50;99.90;;;;;;4979957;28;20042;-86
2023/09/03 06:26:29;;;;;;;11.07;7.07;;;13.60;99.90;;;;;;4978828;28;20061;-86
2023/09/03 06:28:56;;;;;;;8.05;5.93;;;13.80;99.90;;;;;;4994852;28;20046;-86
2023/09/03 06:31:23;;;;;;;9.30;6.28;;;13.60;99.90;;;;;;5011039;28;20046;-86
2023/09/03 06:33:52;;;;;;;9.50;6.70;;;13.70;99.90;;;;;;4962994;28;20514;-86
2023/09/03 06:36:19;;;;;;;11.35;6.82;;;13.80;99.90;;;;;;4994695;28;20399;-87
2023/09/03 06:38:46;;;;;;;10.07;6.10;;;13.70;99.90;;;;;;5010373;28;20042;-86
2023/09/03 06:41:13;;;;;;;10.60;6.57;;;13.80;99.90;;;;;;4978942;28;20483;-86
2023/09/03 06:43:39;;;;;;;9.77;6.40;;;13.90;99.90;;;;;;4994385;28;20039;-87
2023/09/03 06:46:09;;;;;;;10.07;6.68;;;14.00;99.90;;;;;;4979053;28;20041;-87
2023/09/03 06:48:36;;;;;;;12.05;6.68;;;14.00;99.90;;;;;;4994800;28;20109;-87
2023/09/03 06:51:03;;;;;;;9.52;6.28;;;14.00;99.90;;;;;;4994647;28;20042;-86
2023/09/03 06:53:30;;;;;;;13.93;5.85;;;14.10;99.90;;;;;;4978584;28;20065;-87
2023/09/03 06:55:57;;;;;;;8.70;5.78;;;14.10;99.90;;;;;;4994758;28;20046;-87
2023/09/03 06:58:24;;;;;;;7.78;6.15;;;14.20;99.90;;;;;;4994559;28;20038;-87
2023/09/03 07:00:51;;;;;;;10.55;6.07;;;14.20;99.90;;;;;;4994763;28;20042;-87
2023/09/03 07:03:18;;;;;;;10.95;6.80;;;14.30;99.90;;;;;;4979298;28;20046;-87
2023/09/03 07:05:44;;;;;;;8.55;5.68;;;14.40;99.90;;;;;;4997726;28;20045;-87
2023/09/03 07:08:11;;;;;;;11.40;6.03;;;14.40;99.90;;;;;;4994484;28;20502;-87
2023/09/03 07:10:38;;;;;;;9.23;5.88;;;14.50;99.90;;;;;;4994595;28;20038;-87
2023/09/03 07:13:05;;;;;;;7.35;5.72;;;14.60;99.90;;;;;;4994736;28;20128;-87
2023/09/03 07:15:35;;;;;;;10.73;5.32;;;14.70;99.90;;;;;;4994225;28;20042;-90
2023/09/03 07:18:03;;;;;;;10.02;5.57;;;14.80;99.90;;;;;;4994386;28;20479;-87
2023/09/03 07:20:30;;;;;;;8.32;5.47;;;14.90;99.90;;;;;;4994131;28;20170;-86
2023/09/03 07:22:57;;;;;;;9.45;5.70;;;15.00;99.90;;;;;;4976876;28;20042;-86
2023/09/03 07:25:25;;;;;;;9.23;5.45;;;15.20;99.90;;;;;;4990949;28;20035;-87
2023/09/03 07:27:51;;;;;;;7.53;5.65;;;15.20;99.90;;;;;;4991031;28;20034;-87
2023/09/03 07:30:18;;;;;;;8.88;5.38;;;15.50;99.90;;;;;;4959234;28;20054;-87
2023/09/03 07:32:45;;;;;;;7.85;5.57;;;15.60;99.90;;;;;;4990905;28;20049;-87
2023/09/03 07:35:12;;;;;;;6.20;5.00;;;15.70;99.90;;;;;;4991164;28;20043;-86
2023/09/03 07:37:39;;;;;;;9.18;5.70;;;15.80;99.90;;;;;;4990287;28;20054;-87
2023/09/03 07:40:08;;;;;;;8.73;5.68;;;16.00;99.90;;;;;;4990684;28;20569;-86
2023/09/03 07:42:34;;;;;;;8.07;5.47;;;16.20;99.90;;;;;;4966696;28;20133;-86
2023/09/03 07:45:02;;;;;;;8.02;5.20;;;16.30;99.90;;;;;;4990098;28;20134;-85
2023/09/03 07:47:29;;;;;;;9.77;5.72;;;16.40;99.90;;;;;;4959426;28;20050;-87
2023/09/03 07:49:56;;;;;;;9.88;5.38;;;16.40;99.90;;;;;;4942146;28;20431;-85
2023/09/03 07:52:23;;;;;;;9.77;5.70;;;16.50;99.90;;;;;;4958109;28;20403;-86
2023/09/03 07:54:49;;;;;;;8.32;5.53;;;16.60;99.90;;;;;;4989057;28;20181;-88
2023/09/03 07:57:16;;;;;;;8.40;5.53;;;16.60;99.90;;;;;;4958680;28;20554;-87
2023/09/03 07:59:43;;;;;;;10.00;5.88;;;16.70;99.90;;;;;;4974002;28;20141;-86
2023/09/03 08:02:10;;;;;;;10.55;6.13;;;16.70;99.90;;;;;;4974044;28;20047;-86
2023/09/03 08:04:36;;;;;;;10.75;5.70;;;16.80;99.90;;;;;;4972558;28;20073;-87
2023/09/03 08:07:03;;;;;;;9.38;5.72;;;16.80;99.90;;;;;;4993628;28;20038;-86
2023/09/03 08:09:30;;;;;;;8.60;5.75;;;16.90;99.90;;;;;;4980294;28;20077;-88
2023/09/03 08:11:57;;;;;;;9.02;5.53;;;16.90;99.90;;;;;;4963593;29;20535;-86
2023/09/03 08:14:24;;;;;;;9.15;5.78;;;17.00;99.90;;;;;;4993873;28;20134;-87
2023/09/03 08:16:51;;;;;;;7.40;5.25;;;17.10;99.90;;;;;;4962161;28;20509;-86
2023/09/03 08:19:18;;;;;;;8.57;4.75;;;17.10;99.90;;;;;;4993121;28;20046;-86
2023/09/03 08:21:45;;;;;;;8.52;5.15;;;17.20;99.90;;;;;;4945453;28;20511;-87
2023/09/03 08:24:12;;;;;;;7.15;4.32;;;17.20;99.90;;;;;;4964943;28;20066;-86
2023/09/03 08:26:38;;;;;;;8.20;4.60;;;17.30;99.90;;;;;;4965178;28;20920;-86
2023/09/03 08:29:05;;;;;;;8.18;5.18;;;17.40;99.90;;;;;;4974165;29;20069;-86
2023/09/03 08:31:35;;;;;;;8.27;4.47;;;17.30;99.90;;;;;;4927305;29;20050;-86
2023/09/03 08:34:02;;;;;;;7.50;4.40;;;17.50;99.90;;;;;;4957865;28;20058;-86
2023/09/03 08:36:29;;;;;;;8.90;4.20;;;17.60;99.90;;;;;;4943207;29;20093;-86
2023/09/03 08:38:56;;;;;;;6.60;3.95;;;17.70;99.90;;;;;;4958060;29;20083;-86
2023/09/03 08:41:23;;;;;;;7.93;3.65;;;17.80;99.90;;;;;;4942414;29;20106;-86
2023/09/03 08:43:54;;;;;;;5.82;2.90;;;17.90;99.90;;;;;;4973419;29;20049;-86
2023/09/03 08:46:25;;;;;;;8.68;3.20;;;17.90;99.90;;;;;;4958158;29;20050;-86
2023/09/03 08:48:54;;;;;;;8.63;4.43;;;18.10;99.90;;;;;;4956286;29;20496;-87
2023/09/03 08:51:22;;;;;;;6.50;3.70;;;18.20;99.90;;;;;;4957976;29;20071;-85
2023/09/03 08:53:51;;;;;;;7.03;3.00;;;18.20;99.90;;;;;;4957102;29;20051;-86
2023/09/03 08:56:19;;;;;;;7.53;3.45;;;18.30;99.90;;;;;;4973017;29;20408;-86
2023/09/03 08:58:46;;;;;;;5.15;2.92;;;18.30;99.90;;;;;;4925882;29;20050;-86
2023/09/03 09:01:15;;;;;;;6.70;3.38;;;18.40;99.90;;;;;;4941981;29;20047;-85
2023/09/03 09:03:44;;;;;;;5.03;2.72;;;18.40;99.90;;;;;;4956860;29;20038;-86
2023/09/03 09:06:12;;;;;;;5.65;2.60;;;18.40;99.90;;;;;;4953242;29;20488;-87
2023/09/03 09:08:40;;;;;;;6.68;3.05;;;18.50;99.90;;;;;;4943370;28;20098;-87
2023/09/03 09:11:13;;;;;;;5.28;2.25;;;18.60;99.90;;;;;;4971894;29;20404;-85
2023/09/03 09:13:47;;;;;;;6.05;2.30;;;18.70;99.90;;;;;;4957115;29;20070;-85
2023/09/03 09:16:14;;;;;;;5.82;2.80;;;18.80;99.90;;;;;;4957349;29;20146;-85
2023/09/03 09:18:41;;;;;;;5.50;2.60;;;18.80;99.90;;;;;;4940959;29;20122;-85
2023/09/03 09:21:08;;;;;;;4.95;2.22;;;18.80;99.90;;;;;;4939641;29;20035;-85
2023/09/03 09:23:35;;;;;;;4.13;2.33;;;19.00;99.90;;;;;;4973385;29;20039;-85
2023/09/03 09:26:15;;;;;;;4.75;2.25;;;19.10;99.90;;;;;;4941506;29;20042;-85
2023/09/03 09:28:58;;;;;;;5.25;1.95;;;19.10;99.90;;;;;;4949054;28;20074;-85
2023/09/03 09:31:30;;;;;;;5.75;2.38;;;19.30;99.90;;;;;;4961046;28;20057;-85
2023/09/03 09:34:08;;;;;;;6.20;2.30;;;19.40;99.90;;;;;;4975148;28;20046;-85
2023/09/03 09:36:35;;;;;;;3.47;1.70;;;19.40;99.90;;;;;;4976385;28;20133;-85
2023/09/03 09:39:07;;;;;;;3.13;1.65;;;19.50;99.90;;;;;;4964791;28;20042;-86
2023/09/03 09:41:38;;;;;;;7.70;1.73;;;19.60;99.90;;;;;;4988099;28;20060;-85
2023/09/03 09:44:11;;;;;;;6.78;2.03;;;19.70;99.90;;;;;;4965032;28;20047;-86
2023/09/03 09:46:39;;;;;;;5.45;1.85;;;19.80;99.90;;;;;;4975697;28;20042;-85
2023/09/03 09:49:10;;;;;;;6.00;2.50;;;19.70;99.90;;;;;;4975513;28;20213;-85
2023/09/03 09:51:36;;;;;;;4.22;2.28;;;19.70;99.90;;;;;;4992148;28;20403;-84
2023/09/03 09:54:04;;;;;;;5.25;2.10;;;19.70;99.90;;;;;;4959623;28;20061;-85
2023/09/03 09:56:34;;;;;;;4.15;1.92;;;19.80;99.90;;;;;;4993662;28;20042;-84
2023/09/03 09:59:02;;;;;;;6.03;1.88;;;19.80;99.90;;;;;;4950800;28;20043;-85
2023/09/03 10:01:46;;;;;;;3.75;1.50;;;19.80;99.90;;;;;;4975371;28;20590;-85
2023/09/03 10:04:13;;;;;;;5.57;2.17;;;19.90;99.90;;;;;;4990347;28;20487;-86
2023/09/03 10:06:40;;;;;;;5.38;1.73;;;19.90;99.90;;;;;;4975637;28;20050;-86
2023/09/03 10:09:08;;;;;;;4.35;1.88;;;20.10;99.90;;;;;;4960114;28;20042;-86
2023/09/03 10:11:35;;;;;;;3.72;1.92;;;20.00;99.90;;;;;;4989398;28;20406;-86
2023/09/03 10:14:01;;;;;;;3.47;1.85;;;20.10;99.90;;;;;;4991245;28;20047;-86
2023/09/03 10:16:30;;;;;;;4.47;1.80;;;20.20;99.90;;;;;;4960466;28;20042;-86
2023/09/03 10:19:00;;;;;;;4.25;1.75;;;20.40;99.90;;;;;;4984842;28;20065;-86
2023/09/03 10:21:28;;;;;;;3.20;1.90;;;20.30;99.90;;;;;;4995117;28;20388;-86
2023/09/03 10:23:58;;;;;;;4.38;1.90;;;20.50;99.90;;;;;;4993679;28;20037;-87
2023/09/03 10:26:31;;;;;;;5.63;1.63;;;20.50;99.90;;;;;;4992630;28;20034;-86
2023/09/03 10:29:03;;;;;;;4.65;1.95;;;20.70;99.90;;;;;;4994100;28;20420;-86
2023/09/03 10:31:31;;;;;;;3.10;1.63;;;20.80;99.90;;;;;;4983379;28;20439;-88
2023/09/03 10:33:58;;;;;;;4.22;1.40;;;20.90;99.90;;;;;;4959875;28;20051;-88
2023/09/03 10:36:25;;;;;;;3.20;1.40;;;20.80;99.90;;;;;;4976221;28;20576;-90
2023/09/03 10:38:52;;;;;;;3.65;1.30;;;20.80;99.90;;;;;;4969087;28;20043;-85
2023/09/03 10:41:20;;;;;;;2.60;1.20;;;20.90;99.90;;;;;;4974583;28;20133;-86
2023/09/03 10:43:50;;;;;;;2.65;1.30;;;20.90;99.90;;;;;;4990577;28;20122;-86
2023/09/03 10:46:17;;;;;;;3.15;1.17;;;20.60;99.90;;;;;;4974679;28;20039;-85
2023/09/03 10:48:52;;;;;;;2.90;1.40;;;20.40;99.90;;;;;;4974796;28;20182;-85
2023/09/03 10:51:37;;;;;;;3.10;1.25;;;20.50;99.90;;;;;;4995095;28;20059;-86
2023/09/03 10:54:18;;;;;;;3.45;1.70;;;20.60;99.90;;;;;;4975607;28;20046;-86
2023/09/03 10:57:04;;;;;;;2.53;1.38;;;20.70;99.90;;;;;;4975955;28;20042;-85
2023/09/03 10:59:58;;;;;;;3.22;1.27;;;20.80;99.90;;;;;;4974714;28;20177;-86
2023/09/03 11:02:26;;;;;;;4.22;1.20;;;20.90;99.90;;;;;;4990438;28;20043;-86
2023/09/03 11:05:28;;;;;;;3.55;1.20;;;21.10;99.90;;;;;;4971219;29;20039;-86
2023/09/03 11:08:30;;;;;;;3.55;1.30;;;21.10;99.90;;;;;;4974990;29;20058;-86
2023/09/03 11:10:58;;;;;;;3.20;1.30;;;21.20;99.90;;;;;;4955102;29;20515;-86
2023/09/03 11:13:26;;;;;;;2.92;1.33;;;21.30;99.90;;;;;;4954369;28;20461;-86
2023/09/03 11:15:57;;;;;;;2.47;1.20;;;21.30;99.90;;;;;;4990403;28;20035;-85
2023/09/03 11:18:27;;;;;;;2.83;1.30;;;21.30;99.90;;;;;;4958935;28;20510;-85
2023/09/03 11:20:57;;;;;;;2.92;1.33;;;21.20;99.90;;;;;;4959127;28;20129;-86
2023/09/03 11:23:27;;;;;;;2.38;1.20;;;21.20;99.90;;;;;;4975959;28;20126;-85
2023/09/03 11:25:54;;;;;;;2.95;1.30;;;21.20;99.90;;;;;;4993899;28;20106;-86
2023/09/03 11:28:21;;;;;;;2.92;1.17;;;21.10;99.90;;;;;;4968339;28;20511;-85
2023/09/03 11:30:48;;;;;;;3.97;1.25;;;21.10;99.90;;;;;;4958348;28;20059;-86
2023/09/03 11:33:28;;;;;;;3.33;1.40;;;21.00;99.90;;;;;;4974282;28;20451;-85
2023/09/03 11:35:55;;;;;;;2.80;1.27;;;21.00;99.90;;;;;;4967848;28;20042;-85
2023/09/03 11:38:29;;;;;;;3.13;1.10;;;21.10;99.90;;;;;;4990025;28;20047;-86
2023/09/03 11:40:57;;;;;;;1.85;1.13;;;21.20;99.90;;;;;;4958956;28;20042;-86
2023/09/03 11:43:26;;;;;;;13.52;5.50;;;21.30;99.90;;;;;;4959300;28;20050;-85
2023/09/03 11:45:53;;;;;;;16.40;14.73;;;21.40;99.90;;;;;;4994396;28;20045;-85
2023/09/03 11:48:24;;;;;;;3.42;1.63;;;21.40;99.90;;;;;;4946779;28;20125;-86
2023/09/03 11:50:51;;;;;;;3.67;1.40;;;21.50;99.90;;;;;;4962702;28;20141;-86
2023/09/03 11:53:18;;;;;;;3.33;1.42;;;21.50;99.90;;;;;;4959035;29;20047;-85
2023/09/03 11:55:52;;;;;;;4.88;1.10;;;21.60;99.90;;;;;;4962188;28;20043;-86
2023/09/03 11:58:22;;;;;;;2.50;1.23;;;21.70;99.90;;;;;;4978312;28;20049;-86
2023/09/03 12:00:50;;;;;;;2.50;1.30;;;21.80;99.90;;;;;;4977978;28;20047;-85
2023/09/03 12:03:17;;;;;;;3.80;1.30;;;22.00;99.90;;;;;;4977640;28;20039;-86
2023/09/03 12:05:43;;;;;;;3.97;1.25;;;22.10;99.90;;;;;;4977686;28;20045;-86
2023/09/03 12:08:10;;;;;;;2.33;1.13;;;22.00;99.90;;;;;;4979484;28;20041;-85
2023/09/03 12:10:37;;;;;;;3.17;1.15;;;21.90;99.90;;;;;;4978051;28;20089;-85
2023/09/03 12:13:04;;;;;;;3.97;1.33;;;22.20;99.90;;;;;;4977725;28;20133;-86
2023/09/03 12:15:31;;;;;;;2.35;1.13;;;22.20;99.90;;;;;;4961568;28;20045;-85
2023/09/03 12:18:07;;;;;;;2.50;1.00;;;22.20;99.90;;;;;;5004896;28;20056;-86
2023/09/03 12:20:38;;;;;;;2.50;1.17;;;22.10;99.90;;;;;;4980912;28;20046;-85
2023/09/03 12:23:23;;;;;;;2.95;1.20;;;22.30;99.90;;;;;;4980863;28;20110;-86
2023/09/03 12:25:50;;;;;;;3.28;1.15;;;22.20;99.90;;;;;;4983393;28;20038;-85
2023/09/03 12:28:17;;;;;;;4.22;1.10;;;22.30;99.90;;;;;;4965036;28;20052;-86
2023/09/03 12:31:04;;;;;;;1.77;0.82;;;22.40;99.90;;;;;;4996595;28;20056;-86
2023/09/03 12:33:45;;;;;;;3.17;1.10;;;22.50;99.90;;;;;;4996780;28;20049;-85
2023/09/03 12:36:22;;;;;;;2.28;1.02;;;22.50;99.90;;;;;;4997870;28;20038;-85
2023/09/03 12:38:53;;;;;;;2.03;1.00;;;22.60;99.90;;;;;;4980688;28;20078;-85
2023/09/03 12:41:28;;;;;;;3.63;1.02;;;22.80;99.90;;;;;;4996352;28;20462;-85
2023/09/03 12:43:55;;;;;;;2.25;0.90;;;22.60;99.90;;;;;;4996976;28;20495;-85
2023/09/03 12:46:23;;;;;;;2.90;0.98;;;22.60;99.90;;;;;;4996408;28;20121;-86
2023/09/03 12:48:50;;;;;;;1.75;0.98;;;22.50;99.90;;;;;;4996331;28;20100;-86
2023/09/03 12:51:17;;;;;;;2.30;1.08;;;22.40;99.90;;;;;;4996786;28;20121;-86